sensor_id;sensor_type;location;lat;lon;timestamp;pressure;altitude;pressure_sealevel;temperature;humidity
46007;BME280;31738;50.188;8.524;2024-03-07T00:00:46;99552.81;;;7.64;76.11
46007;BME280;31738;50.188;8.524;2024-03-07T00:03:13;99550.38;;;7.63;75.97
46007;BME280;31738;50.188;8.524;2024-03-07T00:05:38;99553.28;;;7.61;76.60
46007;BME280;31738;50.188;8.524;2024-03-07T00:08:14;99561.88;;;7.63;76.00
46007;BME280;31738;50.188;8.524;2024-03-07T00:10:46;99548.53;;;7.63;76.59
46007;BME280;31738;50.188;8.524;2024-03-07T00:13:15;99555.00;;;7.67;76.48
46007;BME280;31738;50.188;8.524;2024-03-07T00:15:41;99552.13;;;7.69;76.53
46007;BME280;31738;50.188;8.524;2024-03-07T00:18:07;99558.84;;;7.71;76.82
46007;BME280;31738;50.188;8.524;2024-03-07T00:20:32;99554.66;;;7.75;76.58
46007;BME280;31738;50.188;8.524;2024-03-07T00:22:58;99554.97;;;7.79;76.85
46007;BME280;31738;50.188;8.524;2024-03-07T00:25:23;99559.06;;;7.81;77.08
46007;BME280;31738;50.188;8.524;2024-03-07T00:27:49;99547.56;;;7.81;76.94
46007;BME280;31738;50.188;8.524;2024-03-07T00:30:25;99551.28;;;7.80;76.68
46007;BME280;31738;50.188;8.524;2024-03-07T00:33:00;99554.19;;;7.78;76.98
46007;BME280;31738;50.188;8.524;2024-03-07T00:35:25;99555.81;;;7.79;77.27
46007;BME280;31738;50.188;8.524;2024-03-07T00:37:51;99548.84;;;7.78;76.99
46007;BME280;31738;50.188;8.524;2024-03-07T00:40:17;99549.88;;;7.77;77.46
46007;BME280;31738;50.188;8.524;2024-03-07T00:42:42;99545.84;;;7.75;77.45
46007;BME280;31738;50.188;8.524;2024-03-07T00:45:19;99544.44;;;7.72;77.46
46007;BME280;31738;50.188;8.524;2024-03-07T00:47:53;99541.66;;;7.67;77.73
46007;BME280;31738;50.188;8.524;2024-03-07T00:50:18;99537.38;;;7.66;77.45
46007;BME280;31738;50.188;8.524;2024-03-07T00:52:44;99538.41;;;7.65;77.71
46007;BME280;31738;50.188;8.524;2024-03-07T00:55:17;99534.13;;;7.64;77.50
46007;BME280;31738;50.188;8.524;2024-03-07T00:57:43;99535.66;;;7.60;77.44
46007;BME280;31738;50.188;8.524;2024-03-07T01:00:09;99531.56;;;7.58;77.35
46007;BME280;31738;50.188;8.524;2024-03-07T01:02:40;99526.47;;;7.56;77.78
46007;BME280;31738;50.188;8.524;2024-03-07T01:05:20;99533.34;;;7.52;77.90
46007;BME280;31738;50.188;8.524;2024-03-07T01:07:48;99537.03;;;7.51;77.43
46007;BME280;31738;50.188;8.524;2024-03-07T01:10:14;99535.88;;;7.47;77.57
46007;BME280;31738;50.188;8.524;2024-03-07T01:12:42;99537.97;;;7.45;77.56
46007;BME280;31738;50.188;8.524;2024-03-07T01:15:12;99534.75;;;7.43;77.03
46007;BME280;31738;50.188;8.524;2024-03-07T01:18:13;99533.13;;;7.31;77.63
46007;BME280;31738;50.188;8.524;2024-03-07T01:20:38;99536.00;;;7.29;77.68
46007;BME280;31738;50.188;8.524;2024-03-07T01:23:04;99539.16;;;7.26;77.44
46007;BME280;31738;50.188;8.524;2024-03-07T01:25:36;99543.66;;;7.26;77.52
46007;BME280;31738;50.188;8.524;2024-03-07T01:28:02;99536.94;;;7.23;77.06
46007;BME280;31738;50.188;8.524;2024-03-07T01:30:40;99533.91;;;7.20;77.53
46007;BME280;31738;50.188;8.524;2024-03-07T01:33:09;99535.22;;;7.17;76.79
46007;BME280;31738;50.188;8.524;2024-03-07T01:36:01;99535.09;;;7.12;77.02
46007;BME280;31738;50.188;8.524;2024-03-07T01:38:32;99537.06;;;7.05;76.91
46007;BME280;31738;50.188;8.524;2024-03-07T01:40:58;99539.97;;;7.04;77.30
46007;BME280;31738;50.188;8.524;2024-03-07T01:43:27;99535.88;;;7.01;77.25
46007;BME280;31738;50.188;8.524;2024-03-07T01:45:54;99537.94;;;6.99;77.32
46007;BME280;31738;50.188;8.524;2024-03-07T01:48:28;99535.75;;;6.96;77.14
46007;BME280;31738;50.188;8.524;2024-03-07T01:51:03;99533.53;;;6.93;77.06
46007;BME280;31738;50.188;8.524;2024-03-07T01:53:35;99529.03;;;6.93;76.47
46007;BME280;31738;50.188;8.524;2024-03-07T01:56:16;99532.38;;;6.89;76.75
46007;BME280;31738;50.188;8.524;2024-03-07T01:58:55;99525.31;;;6.83;77.00
46007;BME280;31738;50.188;8.524;2024-03-07T02:01:23;99525.53;;;6.81;76.43
46007;BME280;31738;50.188;8.524;2024-03-07T02:03:49;99525.53;;;6.81;76.78
46007;BME280;31738;50.188;8.524;2024-03-07T02:09:38;99522.84;;;6.70;76.58
46007;BME280;31738;50.188;8.524;2024-03-07T02:12:04;99526.56;;;6.69;76.39
46007;BME280;31738;50.188;8.524;2024-03-07T02:14:30;99531.06;;;6.68;76.39
46007;BME280;31738;50.188;8.524;2024-03-07T02:17:04;99526.19;;;6.65;76.42
46007;BME280;31738;50.188;8.524;2024-03-07T02:19:36;99527.69;;;6.61;76.17
46007;BME280;31738;50.188;8.524;2024-03-07T02:22:28;99518.19;;;6.54;76.70
46007;BME280;31738;50.188;8.524;2024-03-07T02:25:26;99521.16;;;6.46;76.56
46007;BME280;31738;50.188;8.524;2024-03-07T02:28:23;99523.69;;;6.41;76.45
46007;BME280;31738;50.188;8.524;2024-03-07T02:30:48;99517.34;;;6.42;76.57
46007;BME280;31738;50.188;8.524;2024-03-07T02:33:18;99515.69;;;6.41;76.64
46007;BME280;31738;50.188;8.524;2024-03-07T02:35:44;99515.91;;;6.39;76.65
46007;BME280;31738;50.188;8.524;2024-03-07T02:38:10;99508.16;;;6.38;76.30
46007;BME280;31738;50.188;8.524;2024-03-07T02:41:08;99519.25;;;6.35;76.31
46007;BME280;31738;50.188;8.524;2024-03-07T02:43:36;99508.94;;;6.27;76.74
46007;BME280;31738;50.188;8.524;2024-03-07T02:46:43;99514.28;;;6.27;76.26
46007;BME280;31738;50.188;8.524;2024-03-07T02:49:14;99502.66;;;6.21;76.15
46007;BME280;31738;50.188;8.524;2024-03-07T02:51:52;99504.94;;;6.18;76.61
46007;BME280;31738;50.188;8.524;2024-03-07T02:54:33;99508.06;;;6.15;76.48
46007;BME280;31738;50.188;8.524;2024-03-07T02:56:59;99505.63;;;6.13;76.44
46007;BME280;31738;50.188;8.524;2024-03-07T02:59:25;99506.69;;;6.12;76.21
46007;BME280;31738;50.188;8.524;2024-03-07T03:01:51;99497.06;;;6.11;75.99
46007;BME280;31738;50.188;8.524;2024-03-07T03:04:19;99495.09;;;6.07;76.25
46007;BME280;31738;50.188;8.524;2024-03-07T03:07:03;99497.16;;;6.05;76.34
46007;BME280;31738;50.188;8.524;2024-03-07T03:09:35;99496.00;;;6.01;75.75
46007;BME280;31738;50.188;8.524;2024-03-07T03:12:05;99494.13;;;6.01;76.35
46007;BME280;31738;50.188;8.524;2024-03-07T03:14:34;99494.34;;;6.00;76.67
46007;BME280;31738;50.188;8.524;2024-03-07T03:17:08;99496.44;;;5.98;75.67
46007;BME280;31738;50.188;8.524;2024-03-07T03:19:42;99498.06;;;5.99;75.87
46007;BME280;31738;50.188;8.524;2024-03-07T03:22:30;99498.06;;;5.99;75.82
46007;BME280;31738;50.188;8.524;2024-03-07T03:25:14;99489.69;;;5.95;75.59
46007;BME280;31738;50.188;8.524;2024-03-07T03:27:54;99491.34;;;5.96;76.16
46007;BME280;31738;50.188;8.524;2024-03-07T03:30:51;99478.69;;;5.92;75.75
46007;BME280;31738;50.188;8.524;2024-03-07T03:33:25;99483.44;;;5.90;75.67
46007;BME280;31738;50.188;8.524;2024-03-07T03:36:00;99480.78;;;5.90;75.42
46007;BME280;31738;50.188;8.524;2024-03-07T03:39:01;99487.56;;;5.86;75.85
46007;BME280;31738;50.188;8.524;2024-03-07T03:41:32;99480.63;;;5.85;75.70
46007;BME280;31738;50.188;8.524;2024-03-07T03:43:57;99492.88;;;5.86;75.64
46007;BME280;31738;50.188;8.524;2024-03-07T03:46:23;99485.94;;;5.85;75.50
46007;BME280;31738;50.188;8.524;2024-03-07T03:48:49;99485.94;;;5.85;75.35
46007;BME280;31738;50.188;8.524;2024-03-07T03:51:16;99482.25;;;5.86;75.39
46007;BME280;31738;50.188;8.524;2024-03-07T03:53:41;99477.97;;;5.85;75.37
46007;BME280;31738;50.188;8.524;2024-03-07T03:56:10;99480.63;;;5.85;75.46
46007;BME280;31738;50.188;8.524;2024-03-07T03:58:37;99485.94;;;5.85;75.20
46007;BME280;31738;50.188;8.524;2024-03-07T04:01:02;99482.69;;;5.83;75.04
46007;BME280;31738;50.188;8.524;2024-03-07T04:03:28;99483.75;;;5.82;75.10
46007;BME280;31738;50.188;8.524;2024-03-07T04:05:53;99495.41;;;5.81;75.39
46007;BME280;31738;50.188;8.524;2024-03-07T04:08:20;99487.41;;;5.81;75.10
46007;BME280;31738;50.188;8.524;2024-03-07T04:10:45;99482.31;;;5.79;74.93
46007;BME280;31738;50.188;8.524;2024-03-07T04:13:11;99484.38;;;5.77;75.16
46007;BME280;31738;50.188;8.524;2024-03-07T04:15:36;99485.44;;;5.76;74.70
46007;BME280;31738;50.188;8.524;2024-03-07T04:18:02;99490.97;;;5.75;75.21
46007;BME280;31738;50.188;8.524;2024-03-07T04:20:27;99490.97;;;5.75;75.18
46007;BME280;31738;50.188;8.524;2024-03-07T04:22:53;99489.34;;;5.74;74.81
46007;BME280;31738;50.188;8.524;2024-03-07T04:25:21;99488.31;;;5.75;74.94
46007;BME280;31738;50.188;8.524;2024-03-07T04:27:46;99488.53;;;5.73;74.58
46007;BME280;31738;50.188;8.524;2024-03-07T04:30:12;99488.75;;;5.72;74.51
46007;BME280;31738;50.188;8.524;2024-03-07T04:32:40;99486.09;;;5.72;74.39
46007;BME280;31738;50.188;8.524;2024-03-07T04:35:07;99489.78;;;5.71;74.60
46007;BME280;31738;50.188;8.524;2024-03-07T04:37:34;99495.31;;;5.69;74.28
46007;BME280;31738;50.188;8.524;2024-03-07T04:40:06;99498.81;;;5.70;73.98
46007;BME280;31738;50.188;8.524;2024-03-07T04:42:48;99499.25;;;5.67;74.12
46007;BME280;31738;50.188;8.524;2024-03-07T04:45:15;99496.81;;;5.65;74.08
46007;BME280;31738;50.188;8.524;2024-03-07T04:47:41;99497.84;;;5.64;73.72
46007;BME280;31738;50.188;8.524;2024-03-07T04:50:14;99496.22;;;5.63;73.86
46007;BME280;31738;50.188;8.524;2024-03-07T04:52:42;99491.13;;;5.62;73.96
46007;BME280;31738;50.188;8.524;2024-03-07T04:55:08;99494.81;;;5.61;73.46
46007;BME280;31738;50.188;8.524;2024-03-07T04:57:39;99498.72;;;5.58;73.70
46007;BME280;31738;50.188;8.524;2024-03-07T05:00:07;99493.63;;;5.57;74.01
46007;BME280;31738;50.188;8.524;2024-03-07T05:02:37;99501.81;;;5.55;73.73
46007;BME280;31738;50.188;8.524;2024-03-07T05:05:02;99503.09;;;5.53;73.62
46007;BME280;31738;50.188;8.524;2024-03-07T05:07:28;99496.59;;;5.49;74.15
46007;BME280;31738;50.188;8.524;2024-03-07T05:09:53;99497.63;;;5.48;74.09
46007;BME280;31738;50.188;8.524;2024-03-07T05:12:19;99502.38;;;5.46;73.86
46007;BME280;31738;50.188;8.524;2024-03-07T05:14:44;99506.03;;;5.45;73.80
46007;BME280;31738;50.188;8.524;2024-03-07T05:17:10;99504.44;;;5.44;73.94
46007;BME280;31738;50.188;8.524;2024-03-07T05:19:35;99497.50;;;5.43;74.32
46007;BME280;31738;50.188;8.524;2024-03-07T05:22:02;99505.69;;;5.41;73.91
46007;BME280;31738;50.188;8.524;2024-03-07T05:24:31;99493.41;;;5.40;74.08
46007;BME280;31738;50.188;8.524;2024-03-07T05:26:58;99506.09;;;5.38;74.27
46007;BME280;31738;50.188;8.524;2024-03-07T05:29:23;99496.72;;;5.36;74.46
46007;BME280;31738;50.188;8.524;2024-03-07T05:31:49;99497.19;;;5.32;74.54
46007;BME280;31738;50.188;8.524;2024-03-07T05:34:15;99501.09;;;5.30;74.71
46007;BME280;31738;50.188;8.524;2024-03-07T05:36:44;99493.56;;;5.27;74.45
46007;BME280;31738;50.188;8.524;2024-03-07T05:39:16;99503.38;;;5.26;74.64
46007;BME280;31738;50.188;8.524;2024-03-07T05:41:44;99495.03;;;5.23;74.77
46007;BME280;31738;50.188;8.524;2024-03-07T05:44:13;99497.31;;;5.19;74.78
46007;BME280;31738;50.188;8.524;2024-03-07T05:46:39;99507.97;;;5.19;74.68
46007;BME280;31738;50.188;8.524;2024-03-07T05:49:07;99501.66;;;5.14;75.36
46007;BME280;31738;50.188;8.524;2024-03-07T05:51:33;99497.16;;;5.14;75.38
46007;BME280;31738;50.188;8.524;2024-03-07T05:53:58;99496.56;;;5.12;75.22
46007;BME280;31738;50.188;8.524;2024-03-07T05:56:23;99498.63;;;5.10;75.08
46007;BME280;31738;50.188;8.524;2024-03-07T05:58:49;99502.09;;;5.11;75.51
46007;BME280;31738;50.188;8.524;2024-03-07T06:01:17;99498.63;;;5.10;75.05
46007;BME280;31738;50.188;8.524;2024-03-07T06:03:44;99494.94;;;5.11;75.32
46007;BME280;31738;50.188;8.524;2024-03-07T06:06:09;99501.06;;;5.12;74.68
46007;BME280;31738;50.188;8.524;2024-03-07T06:08:38;99494.72;;;5.13;75.27
46007;BME280;31738;50.188;8.524;2024-03-07T06:11:07;99492.06;;;5.13;75.13
46007;BME280;31738;50.188;8.524;2024-03-07T06:13:33;99489.63;;;5.11;74.53
46007;BME280;31738;50.188;8.524;2024-03-07T06:15:58;99495.75;;;5.12;74.61
46007;BME280;31738;50.188;8.524;2024-03-07T06:18:24;99491.47;;;5.11;75.03
46007;BME280;31738;50.188;8.524;2024-03-07T06:20:49;99490.41;;;5.12;74.91
46007;BME280;31738;50.188;8.524;2024-03-07T06:23:14;99495.97;;;5.10;74.98
46007;BME280;31738;50.188;8.524;2024-03-07T06:25:42;99493.91;;;5.12;75.03
46007;BME280;31738;50.188;8.524;2024-03-07T06:28:17;99485.94;;;5.12;75.14
46007;BME280;31738;50.188;8.524;2024-03-07T06:30:44;99494.06;;;5.17;75.13
46007;BME280;31738;50.188;8.524;2024-03-07T06:33:11;99495.25;;;5.21;74.67
46007;BME280;31738;50.188;8.524;2024-03-07T06:35:37;99493.19;;;5.23;74.83
46007;BME280;31738;50.188;8.524;2024-03-07T06:38:10;99489.63;;;5.29;74.56
46007;BME280;31738;50.188;8.524;2024-03-07T06:40:39;99486.53;;;5.32;74.29
46007;BME280;31738;50.188;8.524;2024-03-07T06:43:10;99492.47;;;5.35;74.04
46007;BME280;31738;50.188;8.524;2024-03-07T06:45:37;99488.31;;;5.39;73.79
46007;BME280;31738;50.188;8.524;2024-03-07T06:48:06;99487.88;;;5.42;73.76
46007;BME280;31738;50.188;8.524;2024-03-07T06:50:35;99494.38;;;5.46;74.14
46007;BME280;31738;50.188;8.524;2024-03-07T06:56:17;99503.53;;;5.50;73.83
46007;BME280;31738;50.188;8.524;2024-03-07T06:58:45;99498.94;;;5.57;73.12
46007;BME280;31738;50.188;8.524;2024-03-07T07:01:11;99497.34;;;5.56;73.12
46007;BME280;31738;50.188;8.524;2024-03-07T07:03:41;99507.09;;;5.62;73.17
46007;BME280;31738;50.188;8.524;2024-03-07T07:06:08;99507.84;;;5.69;73.44
46007;BME280;31738;50.188;8.524;2024-03-07T07:08:36;99504.28;;;5.75;73.05
46007;BME280;31738;50.188;8.524;2024-03-07T07:11:01;99509.38;;;5.76;72.64
46007;BME280;31738;50.188;8.524;2024-03-07T07:13:29;99504.19;;;5.81;73.11
46007;BME280;31738;50.188;8.524;2024-03-07T07:15:55;99509.91;;;5.85;72.77
46007;BME280;31738;50.188;8.524;2024-03-07T07:18:20;99509.31;;;5.83;72.89
46007;BME280;31738;50.188;8.524;2024-03-07T07:20:49;99507.25;;;5.85;73.04
46007;BME280;31738;50.188;8.524;2024-03-07T07:23:14;99508.06;;;5.85;72.97
46007;BME280;31738;50.188;8.524;2024-03-07T07:25:40;99500.66;;;5.87;73.10
46007;BME280;31738;50.188;8.524;2024-03-07T07:28:08;99503.91;;;5.89;73.05
46007;BME280;31738;50.188;8.524;2024-03-07T07:30:36;99507.19;;;5.91;72.50
46007;BME280;31738;50.188;8.524;2024-03-07T07:33:02;99507.88;;;5.98;72.62
46007;BME280;31738;50.188;8.524;2024-03-07T07:35:28;99500.03;;;6.03;72.54
46007;BME280;31738;50.188;8.524;2024-03-07T07:37:53;99512.22;;;6.11;72.67
46007;BME280;31738;50.188;8.524;2024-03-07T07:40:22;99511.34;;;6.17;71.94
46007;BME280;31738;50.188;8.524;2024-03-07T07:42:50;99504.31;;;6.22;72.02
46007;BME280;31738;50.188;8.524;2024-03-07T07:45:17;99504.66;;;6.26;72.32
46007;BME280;31738;50.188;8.524;2024-03-07T07:47:45;99499.53;;;6.24;72.43
46007;BME280;31738;50.188;8.524;2024-03-07T07:50:15;99503.72;;;6.20;72.09
46007;BME280;31738;50.188;8.524;2024-03-07T07:52:44;99494.81;;;6.26;72.19
46007;BME280;31738;50.188;8.524;2024-03-07T07:55:10;99502.34;;;6.29;72.16
46007;BME280;31738;50.188;8.524;2024-03-07T07:57:43;99493.09;;;6.32;72.01
46007;BME280;31738;50.188;8.524;2024-03-07T08:00:13;99492.97;;;6.27;71.96
46007;BME280;31738;50.188;8.524;2024-03-07T08:05:35;99506.31;;;6.38;72.02
46007;BME280;31738;50.188;8.524;2024-03-07T08:08:06;99504.13;;;6.47;72.14
46007;BME280;31738;50.188;8.524;2024-03-07T08:10:33;99503.69;;;6.50;71.43
46007;BME280;31738;50.188;8.524;2024-03-07T08:13:01;99503.81;;;6.55;71.45
46007;BME280;31738;50.188;8.524;2024-03-07T08:15:29;99506.00;;;6.58;71.31
46007;BME280;31738;50.188;8.524;2024-03-07T08:17:55;99502.44;;;6.64;70.98
46007;BME280;31738;50.188;8.524;2024-03-07T08:20:22;99503.16;;;6.71;70.83
46007;BME280;31738;50.188;8.524;2024-03-07T08:22:49;99503.84;;;6.78;70.79
46007;BME280;31738;50.188;8.524;2024-03-07T08:25:19;99506.88;;;6.81;70.58
46007;BME280;31738;50.188;8.524;2024-03-07T08:27:47;99502.94;;;6.84;70.35
46007;BME280;31738;50.188;8.524;2024-03-07T08:30:19;99509.22;;;6.89;69.85
46007;BME280;31738;50.188;8.524;2024-03-07T08:32:52;99509.44;;;6.88;69.68
46007;BME280;31738;50.188;8.524;2024-03-07T08:35:18;99506.19;;;6.97;69.98
46007;BME280;31738;50.188;8.524;2024-03-07T08:37:46;99512.94;;;7.00;69.91
46007;BME280;31738;50.188;8.524;2024-03-07T08:40:14;99506.53;;;7.01;69.92
46007;BME280;31738;50.188;8.524;2024-03-07T08:42:51;99512.69;;;7.13;69.45
46007;BME280;31738;50.188;8.524;2024-03-07T08:45:17;99510.16;;;7.18;69.31
46007;BME280;31738;50.188;8.524;2024-03-07T08:47:45;99505.94;;;7.22;68.86
46007;BME280;31738;50.188;8.524;2024-03-07T08:50:12;99514.31;;;7.37;68.83
46007;BME280;31738;50.188;8.524;2024-03-07T08:52:38;99513.25;;;7.50;68.33
46007;BME280;31738;50.188;8.524;2024-03-07T08:55:06;99506.06;;;7.62;68.21
46007;BME280;31738;50.188;8.524;2024-03-07T08:57:34;99510.44;;;7.68;67.80
46007;BME280;31738;50.188;8.524;2024-03-07T08:59:59;99511.25;;;7.68;67.38
46007;BME280;31738;50.188;8.524;2024-03-07T09:02:26;99524.69;;;7.73;67.22
46007;BME280;31738;50.188;8.524;2024-03-07T09:04:52;99526.91;;;7.76;66.89
46007;BME280;31738;50.188;8.524;2024-03-07T09:07:17;99529.22;;;7.73;66.97
46007;BME280;31738;50.188;8.524;2024-03-07T09:09:43;99535.75;;;7.77;67.17
46007;BME280;31738;50.188;8.524;2024-03-07T09:12:11;99537.47;;;7.71;66.86
46007;BME280;31738;50.188;8.524;2024-03-07T09:14:37;99535.03;;;7.70;66.99
46007;BME280;31738;50.188;8.524;2024-03-07T09:17:03;99542.03;;;7.71;67.00
46007;BME280;31738;50.188;8.524;2024-03-07T09:19:33;99540.13;;;7.71;66.97
46007;BME280;31738;50.188;8.524;2024-03-07T09:21:58;99540.53;;;7.63;66.99
46007;BME280;31738;50.188;8.524;2024-03-07T09:24:25;99541.56;;;7.62;67.32
46007;BME280;31738;50.188;8.524;2024-03-07T09:26:51;99549.34;;;7.52;66.78
46007;BME280;31738;50.188;8.524;2024-03-07T09:29:18;99547.25;;;7.54;67.23
46007;BME280;31738;50.188;8.524;2024-03-07T09:31:45;99549.34;;;7.52;67.10
46007;BME280;31738;50.188;8.524;2024-03-07T09:34:12;99544.94;;;7.46;66.41
46007;BME280;31738;50.188;8.524;2024-03-07T09:36:41;99545.19;;;7.45;67.10
46007;BME280;31738;50.188;8.524;2024-03-07T09:39:07;99537.50;;;7.48;66.66
46007;BME280;31738;50.188;8.524;2024-03-07T09:41:33;99539.81;;;7.56;66.94
46007;BME280;31738;50.188;8.524;2024-03-07T09:43:59;99536.69;;;7.59;66.50
46007;BME280;31738;50.188;8.524;2024-03-07T09:46:25;99537.38;;;7.66;66.91
46007;BME280;31738;50.188;8.524;2024-03-07T09:48:51;99532.47;;;7.75;66.35
46007;BME280;31738;50.188;8.524;2024-03-07T09:51:21;99534.78;;;7.83;66.31
46007;BME280;31738;50.188;8.524;2024-03-07T09:53:49;99534.09;;;7.87;66.39
46007;BME280;31738;50.188;8.524;2024-03-07T09:56:17;99531.78;;;7.79;66.10
46007;BME280;31738;50.188;8.524;2024-03-07T09:58:51;99533.06;;;7.65;66.46
46007;BME280;31738;50.188;8.524;2024-03-07T10:06:19;99544.00;;;7.52;66.66
46007;BME280;31738;50.188;8.524;2024-03-07T10:08:47;99542.13;;;7.64;66.79
46007;BME280;31738;50.188;8.524;2024-03-07T10:11:18;99540.72;;;7.73;66.79
46007;BME280;31738;50.188;8.524;2024-03-07T10:13:43;99539.44;;;7.76;66.45
46007;BME280;31738;50.188;8.524;2024-03-07T10:16:15;99534.78;;;7.83;66.56
46007;BME280;31738;50.188;8.524;2024-03-07T10:18:44;99532.47;;;7.86;66.55
46007;BME280;31738;50.188;8.524;2024-03-07T10:21:14;99540.13;;;7.83;65.69
46007;BME280;31738;50.188;8.524;2024-03-07T10:23:39;99531.41;;;7.87;66.54
46007;BME280;31738;50.188;8.524;2024-03-07T10:26:05;99530.34;;;7.88;66.36
46007;BME280;31738;50.188;8.524;2024-03-07T10:28:32;99519.78;;;7.93;67.06
46007;BME280;31738;50.188;8.524;2024-03-07T10:31:01;99521.38;;;8.06;66.65
46007;BME280;31738;50.188;8.524;2024-03-07T10:33:28;99527.13;;;8.14;66.41
46007;BME280;31738;50.188;8.524;2024-03-07T10:35:58;99512.81;;;8.20;66.20
46007;BME280;31738;50.188;8.524;2024-03-07T10:38:27;99516.75;;;8.29;66.02
46007;BME280;31738;50.188;8.524;2024-03-07T10:40:56;99519.22;;;8.19;66.50
46007;BME280;31738;50.188;8.524;2024-03-07T10:43:22;99518.31;;;8.25;66.56
46007;BME280;31738;50.188;8.524;2024-03-07T10:45:48;99515.56;;;8.37;66.55
46007;BME280;31738;50.188;8.524;2024-03-07T10:48:19;99515.56;;;8.37;65.89
46007;BME280;31738;50.188;8.524;2024-03-07T10:53:19;99500.13;;;8.55;66.26
46007;BME280;31738;50.188;8.524;2024-03-07T10:56:04;99500.38;;;8.54;65.59
46007;BME280;31738;50.188;8.524;2024-03-07T10:58:58;99497.47;;;8.55;66.35
46007;BME280;31738;50.188;8.524;2024-03-07T11:01:31;99502.66;;;8.62;65.87
46007;BME280;31738;50.188;8.524;2024-03-07T11:04:00;99500.06;;;8.67;65.53
46007;BME280;31738;50.188;8.524;2024-03-07T11:06:31;99498.28;;;8.73;65.78
46007;BME280;31738;50.188;8.524;2024-03-07T11:09:14;99490.19;;;8.68;65.47
46007;BME280;31738;50.188;8.524;2024-03-07T11:11:54;99494.88;;;8.60;65.22
46007;BME280;31738;50.188;8.524;2024-03-07T11:14:32;99503.38;;;8.57;65.19
46007;BME280;31738;50.188;8.524;2024-03-07T11:17:12;99496.19;;;8.75;65.65
46007;BME280;31738;50.188;8.524;2024-03-07T11:19:41;99482.41;;;8.83;65.73
46007;BME280;31738;50.188;8.524;2024-03-07T11:22:07;99482.72;;;8.86;65.63
46007;BME280;31738;50.188;8.524;2024-03-07T11:25:03;99475.00;;;9.06;65.37
46007;BME280;31738;50.188;8.524;2024-03-07T11:27:39;99477.94;;;9.05;65.12
46007;BME280;31738;50.188;8.524;2024-03-07T11:30:05;99471.69;;;9.16;64.99
46007;BME280;31738;50.188;8.524;2024-03-07T11:32:39;99457.88;;;9.24;65.20
46007;BME280;31738;50.188;8.524;2024-03-07T11:35:11;99466.94;;;9.39;64.67
46007;BME280;31738;50.188;8.524;2024-03-07T11:37:41;99453.91;;;9.48;64.05
46007;BME280;31738;50.188;8.524;2024-03-07T11:40:12;99441.66;;;9.73;64.10
46007;BME280;31738;50.188;8.524;2024-03-07T11:42:47;99450.78;;;9.99;63.61
46007;BME280;31738;50.188;8.524;2024-03-07T11:45:13;99445.34;;;9.94;63.24
46007;BME280;31738;50.188;8.524;2024-03-07T11:47:57;99447.97;;;9.89;63.43
46007;BME280;31738;50.188;8.524;2024-03-07T11:50:27;99446.81;;;9.80;64.23
46007;BME280;31738;50.188;8.524;2024-03-07T11:52:53;99443.78;;;9.71;64.27
46007;BME280;31738;50.188;8.524;2024-03-07T11:55:23;99441.94;;;9.77;64.28
46007;BME280;31738;50.188;8.524;2024-03-07T11:57:49;99440.25;;;9.92;64.51
46007;BME280;31738;50.188;8.524;2024-03-07T12:00:18;99431.44;;;10.18;63.70
46007;BME280;31738;50.188;8.524;2024-03-07T12:02:43;99435.13;;;10.39;63.09
46007;BME280;31738;50.188;8.524;2024-03-07T12:05:10;99433.00;;;10.41;62.69
46007;BME280;31738;50.188;8.524;2024-03-07T12:07:36;99424.03;;;10.57;62.63
46007;BME280;31738;50.188;8.524;2024-03-07T12:10:03;99429.44;;;10.62;62.14
46007;BME280;31738;50.188;8.524;2024-03-07T12:12:29;99424.78;;;10.53;61.78
46007;BME280;31738;50.188;8.524;2024-03-07T12:14:55;99418.72;;;10.62;62.45
46007;BME280;31738;50.188;8.524;2024-03-07T12:17:23;99433.50;;;10.70;61.59
46007;BME280;31738;50.188;8.524;2024-03-07T12:19:49;99422.44;;;10.61;61.54
46007;BME280;31738;50.188;8.524;2024-03-07T12:22:20;99425.69;;;10.31;61.36
46007;BME280;31738;50.188;8.524;2024-03-07T12:25:00;99422.16;;;10.04;62.31
46007;BME280;31738;50.188;8.524;2024-03-07T12:27:27;99427.44;;;9.94;62.56
46007;BME280;31738;50.188;8.524;2024-03-07T12:29:53;99419.50;;;9.83;62.43
46007;BME280;31738;50.188;8.524;2024-03-07T12:32:19;99416.31;;;9.86;63.05
46007;BME280;31738;50.188;8.524;2024-03-07T12:34:46;99402.84;;;10.02;63.27
46007;BME280;31738;50.188;8.524;2024-03-07T12:37:12;99398.63;;;10.38;62.67
46007;BME280;31738;50.188;8.524;2024-03-07T12:39:42;99397.25;;;10.62;61.95
46007;BME280;31738;50.188;8.524;2024-03-07T12:42:18;99391.56;;;10.59;61.76
46007;BME280;31738;50.188;8.524;2024-03-07T12:44:47;99389.56;;;10.44;61.77
46007;BME280;31738;50.188;8.524;2024-03-07T12:47:16;99395.44;;;10.36;62.68
46007;BME280;31738;50.188;8.524;2024-03-07T12:49:45;99392.34;;;10.22;61.33
46007;BME280;31738;50.188;8.524;2024-03-07T12:52:12;99375.16;;;10.18;62.89
46007;BME280;31738;50.188;8.524;2024-03-07T12:54:43;99376.00;;;10.24;63.34
46007;BME280;31738;50.188;8.524;2024-03-07T12:57:12;99377.19;;;10.38;62.60
46007;BME280;31738;50.188;8.524;2024-03-07T12:59:38;99383.19;;;10.50;62.73
46007;BME280;31738;50.188;8.524;2024-03-07T13:02:10;99387.53;;;10.56;62.07
46007;BME280;31738;50.188;8.524;2024-03-07T13:04:37;99373.63;;;10.64;61.78
46007;BME280;31738;50.188;8.524;2024-03-07T13:07:06;99385.41;;;10.58;61.45
46007;BME280;31738;50.188;8.524;2024-03-07T13:09:35;99389.88;;;10.48;60.27
46007;BME280;31738;50.188;8.524;2024-03-07T13:12:01;99384.88;;;10.61;60.95
46007;BME280;31738;50.188;8.524;2024-03-07T13:14:30;99382.81;;;10.73;60.96
46007;BME280;31738;50.188;8.524;2024-03-07T13:17:01;99384.47;;;10.79;60.51
46007;BME280;31738;50.188;8.524;2024-03-07T13:19:30;99376.88;;;10.66;60.54
46007;BME280;31738;50.188;8.524;2024-03-07T13:21:56;99373.81;;;10.53;60.38
46007;BME280;31738;50.188;8.524;2024-03-07T13:24:26;99385.59;;;10.52;60.64
46007;BME280;31738;50.188;8.524;2024-03-07T13:26:52;99386.88;;;10.44;60.85
46007;BME280;31738;50.188;8.524;2024-03-07T13:29:19;99388.69;;;10.33;61.07
46007;BME280;31738;50.188;8.524;2024-03-07T13:31:50;99380.91;;;10.32;61.46
46007;BME280;31738;50.188;8.524;2024-03-07T13:34:17;99387.03;;;10.27;60.81
46007;BME280;31738;50.188;8.524;2024-03-07T13:36:44;99378.22;;;10.32;61.03
46007;BME280;31738;50.188;8.524;2024-03-07T13:39:11;99382.03;;;10.36;60.73